createdAt,value
2023-02-06T00:04:36.818Z,99.90
2023-02-06T00:09:38.969Z,99.90
2023-02-06T00:14:41.078Z,99.90
2023-02-06T00:19:44.568Z,99.90
2023-02-06T00:24:46.710Z,99.90
2023-02-06T00:29:48.930Z,99.90
2023-02-06T00:34:51.037Z,99.90
2023-02-06T00:39:53.135Z,99.90
2023-02-06T00:44:55.308Z,99.90
2023-02-06T00:49:57.379Z,99.90
2023-02-06T00:54:59.681Z,99.90
2023-02-06T01:00:02.040Z,99.90
2023-02-06T01:05:05.343Z,99.90
2023-02-06T01:10:11.218Z,99.90
2023-02-06T01:15:15.100Z,99.90
2023-02-06T01:20:17.654Z,99.90
2023-02-06T01:25:19.929Z,99.90
2023-02-06T01:30:23.197Z,99.90
2023-02-06T01:35:25.378Z,99.90
2023-02-06T01:40:27.472Z,99.90
2023-02-06T01:45:41.067Z,99.90
2023-02-06T01:50:48.004Z,99.90
2023-02-06T01:55:51.764Z,99.90
2023-02-06T02:00:55.737Z,99.90
2023-02-06T02:06:09.714Z,99.90
2023-02-06T02:11:17.062Z,99.90
2023-02-06T02:16:36.708Z,99.90
2023-02-06T02:22:05.124Z,99.90
2023-02-06T02:27:43.231Z,99.90
2023-02-06T02:33:32.793Z,99.90
2023-02-06T02:38:44.576Z,99.90
2023-02-06T02:44:05.751Z,99.90
2023-02-06T02:49:27.143Z,99.90
2023-02-06T02:54:30.165Z,99.90
2023-02-06T02:59:37.520Z,99.90
2023-02-06T03:04:53.833Z,99.90
2023-02-06T03:10:05.169Z,99.90
2023-02-06T03:15:31.473Z,99.90
2023-02-06T03:20:37.472Z,99.90
2023-02-06T03:25:42.864Z,99.90
2023-02-06T03:30:49.152Z,99.90
2023-02-06T03:35:51.790Z,99.90
2023-02-06T03:40:55.975Z,99.90
2023-02-06T03:46:02.438Z,99.90
2023-02-06T03:51:14.649Z,99.90
2023-02-06T03:56:25.382Z,99.90
2023-02-06T04:01:28.108Z,99.90
2023-02-06T04:06:30.314Z,99.90
2023-02-06T04:11:32.431Z,99.90
2023-02-06T04:16:34.566Z,99.90
2023-02-06T04:21:36.717Z,99.90
2023-02-06T04:26:38.879Z,99.90
2023-02-06T04:31:41.435Z,99.90
2023-02-06T04:36:43.609Z,99.90
2023-02-06T04:41:45.750Z,99.90
2023-02-06T04:46:48.573Z,99.90
2023-02-06T04:51:50.682Z,99.90
2023-02-06T04:56:52.840Z,99.90
2023-02-06T05:01:54.937Z,99.90
2023-02-06T05:06:57.074Z,99.90
2023-02-06T05:11:59.267Z,99.90
2023-02-06T05:17:01.471Z,99.90
2023-02-06T05:22:03.601Z,99.90
2023-02-06T05:27:05.784Z,99.90
2023-02-06T05:32:07.936Z,99.90
2023-02-06T05:37:10.020Z,99.90
2023-02-06T05:42:12.102Z,99.90
2023-02-06T05:47:14.274Z,99.90
2023-02-06T05:52:16.627Z,99.90
2023-02-06T05:57:18.850Z,99.90
2023-02-06T06:02:20.960Z,99.90
2023-02-06T06:07:23.146Z,99.90
2023-02-06T06:12:25.296Z,99.90
2023-02-06T06:17:27.398Z,99.90
2023-02-06T06:22:29.489Z,99.90
2023-02-06T06:27:31.586Z,99.90
2023-02-06T06:32:33.721Z,99.90
2023-02-06T06:37:35.897Z,99.90
2023-02-06T06:42:38.071Z,99.90
2023-02-06T06:47:40.486Z,99.90
2023-02-06T06:52:42.649Z,99.90
2023-02-06T06:57:44.786Z,99.90
2023-02-06T07:02:47.296Z,99.90
2023-02-06T07:07:49.368Z,99.90
2023-02-06T07:12:53.662Z,99.90
2023-02-06T07:17:55.791Z,99.90
2023-02-06T07:22:57.889Z,99.90
2023-02-06T07:28:00.051Z,99.90
2023-02-06T07:33:04.984Z,99.90
2023-02-06T07:38:07.081Z,99.90
2023-02-06T07:43:09.169Z,99.90
2023-02-06T07:48:12.295Z,99.90
2023-02-06T07:53:14.360Z,99.90
2023-02-06T07:58:16.525Z,99.90
2023-02-06T08:03:19.161Z,99.90
2023-02-06T08:08:21.240Z,99.90
2023-02-06T08:13:23.322Z,99.90
2023-02-06T08:18:25.482Z,99.90
2023-02-06T08:23:27.549Z,99.90
2023-02-06T08:28:31.040Z,99.90
2023-02-06T08:33:33.081Z,99.90
2023-02-06T08:38:35.857Z,99.90
2023-02-06T08:43:37.912Z,99.90
2023-02-06T08:48:40.119Z,99.90
2023-02-06T08:53:42.187Z,99.90
2023-02-06T08:58:44.352Z,99.90
2023-02-06T09:03:47.209Z,99.90
2023-02-06T09:08:49.358Z,99.90
2023-02-06T09:13:53.826Z,99.90
2023-02-06T09:18:56.165Z,99.90
2023-02-06T09:24:01.111Z,99.90
2023-02-06T09:29:08.314Z,99.90
2023-02-06T09:34:12.871Z,99.90
2023-02-06T09:39:15.074Z,99.90
2023-02-06T09:44:28.035Z,99.90
2023-02-06T09:49:53.039Z,99.90
2023-02-06T09:55:30.280Z,99.90
2023-02-06T10:00:57.608Z,99.90
2023-02-06T10:06:14.632Z,99.90
2023-02-06T10:11:40.364Z,99.90
2023-02-06T10:16:47.817Z,99.90
2023-02-06T10:22:01.568Z,99.90
2023-02-06T10:27:09.563Z,99.90
2023-02-06T10:32:43.563Z,99.90
2023-02-06T10:38:15.614Z,99.90
2023-02-06T10:43:23.424Z,99.90
2023-02-06T10:48:44.595Z,99.90
2023-02-06T10:53:58.165Z,99.90
2023-02-06T10:59:05.821Z,99.90
2023-02-06T11:04:38.683Z,99.90
2023-02-06T11:09:41.227Z,99.90
2023-02-06T11:14:43.599Z,99.90
2023-02-06T11:19:48.533Z,99.90
2023-02-06T11:25:27.035Z,99.90
2023-02-06T11:30:35.677Z,99.90
2023-02-06T11:35:47.397Z,99.90
2023-02-06T11:41:02.166Z,99.90
2023-02-06T11:46:25.190Z,99.90
2023-02-06T11:51:45.819Z,99.90
2023-02-06T11:57:20.031Z,99.90
2023-02-06T12:02:28.814Z,99.90
2023-02-06T12:07:50.428Z,99.90
2023-02-06T12:12:57.905Z,99.90
2023-02-06T12:18:25.671Z,99.90
2023-02-06T12:23:45.126Z,99.90
2023-02-06T12:29:04.031Z,99.90
2023-02-06T12:34:41.153Z,99.90
2023-02-06T12:39:45.507Z,99.90
2023-02-06T12:44:54.978Z,99.90
2023-02-06T12:50:13.398Z,99.90
2023-02-06T12:55:27.201Z,99.90
2023-02-06T13:00:47.954Z,99.90
2023-02-06T13:06:13.709Z,99.90
2023-02-06T13:11:21.628Z,99.90
2023-02-06T13:16:38.000Z,99.90
2023-02-06T13:21:40.240Z,99.90
2023-02-06T13:26:51.642Z,99.90
2023-02-06T13:32:12.313Z,99.90
2023-02-06T13:37:23.271Z,99.90
2023-02-06T13:42:36.216Z,99.90
2023-02-06T13:47:50.473Z,99.90
2023-02-06T13:53:20.406Z,99.90
2023-02-06T13:58:41.026Z,98.60
2023-02-06T14:03:46.384Z,97.70
2023-02-06T14:09:15.454Z,98.40
2023-02-06T14:14:33.699Z,98.50
2023-02-06T14:20:07.639Z,99.60
2023-02-06T14:25:28.286Z,98.70
2023-02-06T14:31:01.450Z,96.20
2023-02-06T14:36:38.485Z,95.10
2023-02-06T14:41:40.968Z,95.10
2023-02-06T14:46:43.293Z,97.60
2023-02-06T14:51:50.759Z,97.30
2023-02-06T14:57:00.549Z,96.30
2023-02-06T15:02:14.107Z,96.40
2023-02-06T15:07:29.216Z,95.40
2023-02-06T15:12:32.219Z,95.20
2023-02-06T15:17:34.528Z,94.90
2023-02-06T15:22:36.927Z,94.10
2023-02-06T15:27:39.459Z,94.00
2023-02-06T15:32:41.868Z,93.50
2023-02-06T15:37:44.004Z,93.40
2023-02-06T15:42:47.907Z,93.90
2023-02-06T15:47:52.136Z,94.60
2023-02-06T15:52:55.752Z,94.00
2023-02-06T15:57:59.517Z,93.90
2023-02-06T16:03:08.287Z,93.80
2023-02-06T16:08:19.934Z,94.10
2023-02-06T16:13:28.053Z,94.10
2023-02-06T16:18:33.303Z,94.30
2023-02-06T16:24:03.332Z,94.50
2023-02-06T16:29:21.156Z,94.80
2023-02-06T16:34:53.722Z,95.40
2023-02-06T16:39:56.069Z,96.10
2023-02-06T16:45:06.180Z,96.40
2023-02-06T16:50:10.461Z,97.00
2023-02-06T16:55:20.897Z,97.30
2023-02-06T17:00:29.510Z,98.00
2023-02-06T17:05:37.328Z,98.30
2023-02-06T17:10:39.600Z,98.80
2023-02-06T17:15:42.396Z,99.20
2023-02-06T17:20:47.258Z,99.80
2023-02-06T17:25:50.904Z,99.90
2023-02-06T17:30:53.621Z,99.90
2023-02-06T17:35:56.137Z,99.90
2023-02-06T17:40:58.323Z,99.90
2023-02-06T17:46:00.488Z,99.90
2023-02-06T17:51:03.050Z,99.90
2023-02-06T17:56:13.067Z,99.90
2023-02-06T18:01:19.367Z,99.90
2023-02-06T18:06:22.036Z,99.90
2023-02-06T18:11:24.304Z,99.90
2023-02-06T18:16:28.452Z,99.90
2023-02-06T18:21:31.567Z,99.90
2023-02-06T18:26:33.791Z,99.90
2023-02-06T18:31:36.753Z,99.90
2023-02-06T18:36:39.141Z,99.90
2023-02-06T18:42:00.046Z,99.90
2023-02-06T18:47:02.265Z,99.90
2023-02-06T18:52:05.279Z,99.90
2023-02-06T18:57:07.577Z,99.90
2023-02-06T19:02:11.630Z,99.90
2023-02-06T19:07:13.903Z,99.90
2023-02-06T19:12:16.141Z,99.90
2023-02-06T19:17:18.229Z,99.90
2023-02-06T19:22:20.447Z,99.90
2023-02-06T19:27:22.993Z,99.90
2023-02-06T19:32:28.665Z,99.90
2023-02-06T19:37:31.263Z,99.90
2023-02-06T19:42:33.448Z,99.90
2023-02-06T19:47:36.224Z,99.90
2023-02-06T19:52:38.376Z,99.90
2023-02-06T19:57:40.894Z,99.90
2023-02-06T20:02:43.152Z,99.90
2023-02-06T20:07:45.376Z,99.90
2023-02-06T20:12:47.782Z,99.90
2023-02-06T20:17:51.515Z,99.90
2023-02-06T20:22:53.725Z,99.90
2023-02-06T20:27:55.965Z,99.90
2023-02-06T20:32:58.117Z,99.90
2023-02-06T20:38:00.303Z,99.90
2023-02-06T20:43:02.538Z,99.90
2023-02-06T20:48:04.907Z,99.90
2023-02-06T20:53:07.177Z,99.90
2023-02-06T20:58:09.531Z,99.90
2023-02-06T21:03:11.819Z,99.90
2023-02-06T21:08:13.975Z,99.90
2023-02-06T21:13:16.244Z,99.90
2023-02-06T21:18:18.854Z,99.90
2023-02-06T21:23:21.488Z,99.90
2023-02-06T21:28:23.673Z,99.90
2023-02-06T21:33:25.928Z,99.90
2023-02-06T21:38:28.322Z,99.90
2023-02-06T21:43:30.612Z,99.90
2023-02-06T21:48:34.114Z,99.90
2023-02-06T21:53:37.126Z,99.90
2023-02-06T21:58:40.587Z,99.90
2023-02-06T22:03:44.630Z,99.90
2023-02-06T22:08:51.491Z,99.90
2023-02-06T22:13:58.126Z,99.90
2023-02-06T22:19:00.903Z,99.90
2023-02-06T22:24:06.252Z,99.90
2023-02-06T22:29:12.016Z,99.90
2023-02-06T22:34:19.659Z,99.90
2023-02-06T22:39:21.899Z,99.90
2023-02-06T22:44:24.172Z,99.90
2023-02-06T22:49:26.512Z,99.90
2023-02-06T22:54:28.707Z,99.90
2023-02-06T22:59:30.892Z,99.90
2023-02-06T23:04:38.349Z,99.90
2023-02-06T23:09:40.767Z,99.90
2023-02-06T23:14:43.631Z,99.90
2023-02-06T23:19:45.906Z,99.90
2023-02-06T23:24:51.870Z,99.90
2023-02-06T23:29:54.212Z,99.90
2023-02-06T23:34:56.587Z,99.90
2023-02-06T23:39:58.949Z,99.90
2023-02-06T23:45:01.334Z,99.90
2023-02-06T23:50:05.349Z,99.90
2023-02-06T23:55:07.729Z,99.90
